sensor_id;sensor_type;location;lat;lon;timestamp;pressure;altitude;pressure_sealevel;temperature;humidity
10145;BME280;5113;41.822;23.564;2023-02-02T00:00:49;-10974.09;;;1.44;88.21
10145;BME280;5113;41.822;23.564;2023-02-02T00:03:56;-10966.81;;;1.17;87.93
10145;BME280;5113;41.822;23.564;2023-02-02T00:07:03;-10969.63;;;1.27;85.63
10145;BME280;5113;41.822;23.564;2023-02-02T00:10:11;-10971.03;;;1.32;86.78
10145;BME280;5113;41.822;23.564;2023-02-02T00:13:17;-10960.94;;;0.96;90.84
10145;BME280;5113;41.822;23.564;2023-02-02T00:16:41;-10961.34;;;0.97;89.92
10145;BME280;5113;41.822;23.564;2023-02-02T00:19:48;-10968.50;;;1.23;89.44
10145;BME280;5113;41.822;23.564;2023-02-02T00:22:54;-10962.47;;;1.02;92.49
10145;BME280;5113;41.822;23.564;2023-02-02T00:26:01;-10953.09;;;0.68;92.26
10145;BME280;5113;41.822;23.564;2023-02-02T00:29:12;-10956.16;;;0.79;91.72
10145;BME280;5113;41.822;23.564;2023-02-02T00:32:21;-10962.91;;;1.03;93.36
10145;BME280;5113;41.822;23.564;2023-02-02T00:35:27;-10962.06;;;1.00;91.21
10145;BME280;5113;41.822;23.564;2023-02-02T00:38:33;-10965.69;;;1.13;91.92
10145;BME280;5113;41.822;23.564;2023-02-02T00:41:41;-10961.91;;;0.99;92.52
10145;BME280;5113;41.822;23.564;2023-02-02T00:44:47;-10962.91;;;1.03;91.87
10145;BME280;5113;41.822;23.564;2023-02-02T00:48:12;-10950.84;;;0.59;94.56
10145;BME280;5113;41.822;23.564;2023-02-02T00:51:18;-10951.53;;;0.62;93.34
10145;BME280;5113;41.822;23.564;2023-02-02T00:54:25;-10953.22;;;0.68;95.57
10145;BME280;5113;41.822;23.564;2023-02-02T00:57:31;-10963.31;;;1.05;94.61
10145;BME280;5113;41.822;23.564;2023-02-02T01:00:37;-10961.91;;;0.99;93.38
10145;BME280;5113;41.822;23.564;2023-02-02T01:03:45;-10957.84;;;0.85;96.39
10145;BME280;5113;41.822;23.564;2023-02-02T01:06:51;-10949.16;;;0.53;95.87
10145;BME280;5113;41.822;23.564;2023-02-02T01:09:57;-10953.22;;;0.68;93.38
10145;BME280;5113;41.822;23.564;2023-02-02T01:13:03;-10954.78;;;0.74;96.05
10145;BME280;5113;41.822;23.564;2023-02-02T01:16:10;-10957.72;;;0.84;95.27
10145;BME280;5113;41.822;23.564;2023-02-02T01:19:18;-10950.84;;;0.59;96.03
10145;BME280;5113;41.822;23.564;2023-02-02T01:22:25;-10954.50;;;0.73;94.46
10145;BME280;5113;41.822;23.564;2023-02-02T01:25:31;-10957.56;;;0.84;94.85
10145;BME280;5113;41.822;23.564;2023-02-02T01:28:42;-10958.13;;;0.86;96.09
10145;BME280;5113;41.822;23.564;2023-02-02T01:31:48;-10953.66;;;0.70;97.39
10145;BME280;5113;41.822;23.564;2023-02-02T01:34:56;-10952.81;;;0.66;97.68
10145;BME280;5113;41.822;23.564;2023-02-02T01:38:03;-10955.88;;;0.78;98.49
10145;BME280;5113;41.822;23.564;2023-02-02T01:41:11;-10955.63;;;0.77;95.95
10145;BME280;5113;41.822;23.564;2023-02-02T01:45:01;-10955.88;;;0.78;96.59
10145;BME280;5113;41.822;23.564;2023-02-02T01:48:09;-10953.94;;;0.71;95.37
10145;BME280;5113;41.822;23.564;2023-02-02T01:51:18;-10959.81;;;0.92;95.41
10145;BME280;5113;41.822;23.564;2023-02-02T01:54:29;-10958.41;;;0.87;95.55
10145;BME280;5113;41.822;23.564;2023-02-02T01:57:40;-10960.09;;;0.93;93.42
10145;BME280;5113;41.822;23.564;2023-02-02T02:00:48;-10964.59;;;1.09;93.78
10145;BME280;5113;41.822;23.564;2023-02-02T02:03:55;-10960.09;;;0.93;93.18
10145;BME280;5113;41.822;23.564;2023-02-02T02:07:03;-10960.25;;;0.93;91.61
10145;BME280;5113;41.822;23.564;2023-02-02T02:10:10;-10968.50;;;1.23;88.83
10145;BME280;5113;41.822;23.564;2023-02-02T02:13:17;-10973.00;;;1.40;87.87
10145;BME280;5113;41.822;23.564;2023-02-02T02:16:31;-10975.09;;;1.47;88.81
10145;BME280;5113;41.822;23.564;2023-02-02T02:19:59;-10979.44;;;1.63;87.04
10145;BME280;5113;41.822;23.564;2023-02-02T02:28:22;-10993.59;;;2.14;79.51
10145;BME280;5113;41.822;23.564;2023-02-02T02:31:51;-10984.47;;;1.81;82.75
10145;BME280;5113;41.822;23.564;2023-02-02T02:35:06;-10975.78;;;1.50;87.18
10145;BME280;5113;41.822;23.564;2023-02-02T02:38:19;-10985.59;;;1.85;84.36
10145;BME280;5113;41.822;23.564;2023-02-02T02:41:32;-10982.25;;;1.73;86.60
10145;BME280;5113;41.822;23.564;2023-02-02T02:44:40;-10985.88;;;1.86;85.08
10145;BME280;5113;41.822;23.564;2023-02-02T02:47:49;-10993.72;;;2.15;81.42
10145;BME280;5113;41.822;23.564;2023-02-02T02:51:05;-10991.91;;;2.08;81.91
10145;BME280;5113;41.822;23.564;2023-02-02T02:54:14;-10988.13;;;1.94;82.31
10145;BME280;5113;41.822;23.564;2023-02-02T02:57:48;-10987.84;;;1.93;81.99
10145;BME280;5113;41.822;23.564;2023-02-02T03:01:02;-11000.88;;;2.41;78.72
10145;BME280;5113;41.822;23.564;2023-02-02T03:04:17;-10999.47;;;2.36;77.85
10145;BME280;5113;41.822;23.564;2023-02-02T03:07:28;-11002.72;;;2.47;77.05
10145;BME280;5113;41.822;23.564;2023-02-02T03:10:39;-11004.53;;;2.54;77.11
10145;BME280;5113;41.822;23.564;2023-02-02T03:13:46;-11008.31;;;2.68;74.13
10145;BME280;5113;41.822;23.564;2023-02-02T03:16:52;-11018.00;;;3.03;71.72
10145;BME280;5113;41.822;23.564;2023-02-02T03:20:00;-11019.53;;;3.08;70.05
10145;BME280;5113;41.822;23.564;2023-02-02T03:23:06;-11018.97;;;3.06;70.23
10145;BME280;5113;41.822;23.564;2023-02-02T03:26:12;-11023.31;;;3.22;68.55
10145;BME280;5113;41.822;23.564;2023-02-02T03:29:18;-11021.50;;;3.15;68.69
10145;BME280;5113;41.822;23.564;2023-02-02T03:32:25;-11015.47;;;2.93;70.01
10145;BME280;5113;41.822;23.564;2023-02-02T03:35:33;-11016.16;;;2.96;70.16
10145;BME280;5113;41.822;23.564;2023-02-02T03:38:39;-11014.75;;;2.91;70.00
10145;BME280;5113;41.822;23.564;2023-02-02T03:41:45;-11018.13;;;3.03;68.63
10145;BME280;5113;41.822;23.564;2023-02-02T03:44:51;-11022.06;;;3.17;67.12
10145;BME280;5113;41.822;23.564;2023-02-02T03:47:58;-11018.97;;;3.06;66.58
10145;BME280;5113;41.822;23.564;2023-02-02T03:51:06;-11017.00;;;2.99;67.67
10145;BME280;5113;41.822;23.564;2023-02-02T03:54:13;-11014.19;;;2.89;68.16
10145;BME280;5113;41.822;23.564;2023-02-02T03:57:19;-11015.03;;;2.92;67.61
10145;BME280;5113;41.822;23.564;2023-02-02T04:00:25;-11009.28;;;2.71;69.05
10145;BME280;5113;41.822;23.564;2023-02-02T04:03:32;-11009.16;;;2.71;68.59
10145;BME280;5113;41.822;23.564;2023-02-02T04:06:39;-11008.88;;;2.70;68.72
10145;BME280;5113;41.822;23.564;2023-02-02T04:09:46;-11004.66;;;2.54;69.21
10145;BME280;5113;41.822;23.564;2023-02-02T04:12:52;-11005.78;;;2.58;69.92
10145;BME280;5113;41.822;23.564;2023-02-02T04:15:58;-11007.19;;;2.63;69.51
10145;BME280;5113;41.822;23.564;2023-02-02T04:19:04;-11003.81;;;2.51;70.03
10145;BME280;5113;41.822;23.564;2023-02-02T04:22:11;-11001.31;;;2.42;69.89
10145;BME280;5113;41.822;23.564;2023-02-02T04:25:17;-10998.78;;;2.33;70.50
10145;BME280;5113;41.822;23.564;2023-02-02T04:28:24;-10997.94;;;2.30;71.26
10145;BME280;5113;41.822;23.564;2023-02-02T04:31:31;-10996.69;;;2.25;71.64
10145;BME280;5113;41.822;23.564;2023-02-02T04:34:37;-10988.97;;;1.97;73.29
10145;BME280;5113;41.822;23.564;2023-02-02T04:37:45;-10989.25;;;1.98;72.53
10145;BME280;5113;41.822;23.564;2023-02-02T04:40:51;-11003.53;;;2.50;70.37
10145;BME280;5113;41.822;23.564;2023-02-02T04:43:57;-11003.53;;;2.50;69.91
10145;BME280;5113;41.822;23.564;2023-02-02T04:47:03;-11006.91;;;2.62;69.56
10145;BME280;5113;41.822;23.564;2023-02-02T04:50:10;-11008.75;;;2.69;69.50
10145;BME280;5113;41.822;23.564;2023-02-02T04:53:18;-11008.88;;;2.70;69.93
10145;BME280;5113;41.822;23.564;2023-02-02T04:56:24;-11009.44;;;2.72;69.43
10145;BME280;5113;41.822;23.564;2023-02-02T04:59:30;-11012.81;;;2.84;68.72
10145;BME280;5113;41.822;23.564;2023-02-02T05:02:37;-11006.06;;;2.59;70.18
10145;BME280;5113;41.822;23.564;2023-02-02T05:05:43;-11005.78;;;2.58;70.39
10145;BME280;5113;41.822;23.564;2023-02-02T05:08:50;-11001.44;;;2.43;72.18
10145;BME280;5113;41.822;23.564;2023-02-02T05:11:56;-10990.50;;;2.03;74.88
10145;BME280;5113;41.822;23.564;2023-02-02T05:15:05;-10986.31;;;1.88;76.12
10145;BME280;5113;41.822;23.564;2023-02-02T05:18:11;-10982.50;;;1.74;76.92
10145;BME280;5113;41.822;23.564;2023-02-02T05:21:17;-10980.84;;;1.68;77.33
10145;BME280;5113;41.822;23.564;2023-02-02T05:24:26;-10980.56;;;1.67;77.93
10145;BME280;5113;41.822;23.564;2023-02-02T05:27:32;-10978.03;;;1.58;78.71
10145;BME280;5113;41.822;23.564;2023-02-02T05:30:38;-10979.84;;;1.64;78.87
10145;BME280;5113;41.822;23.564;2023-02-02T05:33:48;-10983.06;;;1.76;78.37
10145;BME280;5113;41.822;23.564;2023-02-02T05:36:54;-10981.13;;;1.69;78.31
10145;BME280;5113;41.822;23.564;2023-02-02T05:40:01;-10980.13;;;1.65;78.83
10145;BME280;5113;41.822;23.564;2023-02-02T05:43:08;-10980.56;;;1.67;78.79
10145;BME280;5113;41.822;23.564;2023-02-02T05:46:14;-10978.19;;;1.58;79.76
10145;BME280;5113;41.822;23.564;2023-02-02T05:49:21;-10980.97;;;1.69;80.76
10145;BME280;5113;41.822;23.564;2023-02-02T05:52:28;-10980.84;;;1.68;80.41
10145;BME280;5113;41.822;23.564;2023-02-02T05:55:37;-10987.97;;;1.94;79.59
10145;BME280;5113;41.822;23.564;2023-02-02T05:58:45;-10992.91;;;2.12;77.81
10145;BME280;5113;41.822;23.564;2023-02-02T06:01:53;-11004.09;;;2.52;74.96
10145;BME280;5113;41.822;23.564;2023-02-02T06:04:59;-11005.38;;;2.57;73.56
10145;BME280;5113;41.822;23.564;2023-02-02T06:08:05;-11005.50;;;2.57;73.56
10145;BME280;5113;41.822;23.564;2023-02-02T06:11:14;-11003.13;;;2.49;74.91
10145;BME280;5113;41.822;23.564;2023-02-02T06:14:21;-11004.09;;;2.52;74.74
10145;BME280;5113;41.822;23.564;2023-02-02T06:17:26;-11004.66;;;2.54;74.10
10145;BME280;5113;41.822;23.564;2023-02-02T06:20:33;-11009.72;;;2.73;73.64
10145;BME280;5113;41.822;23.564;2023-02-02T06:23:41;-11019.25;;;3.07;71.43
10145;BME280;5113;41.822;23.564;2023-02-02T06:26:51;-11015.59;;;2.94;70.53
10145;BME280;5113;41.822;23.564;2023-02-02T06:29:59;-11023.31;;;3.22;68.57
10145;BME280;5113;41.822;23.564;2023-02-02T06:33:06;-11040.28;;;3.83;68.86
10145;BME280;5113;41.822;23.564;2023-02-02T06:36:12;-11041.13;;;3.86;68.35
10145;BME280;5113;41.822;23.564;2023-02-02T06:39:18;-11035.53;;;3.66;68.33
10145;BME280;5113;41.822;23.564;2023-02-02T06:42:26;-11027.09;;;3.36;69.28
10145;BME280;5113;41.822;23.564;2023-02-02T06:45:32;-11033.41;;;3.58;67.77
10145;BME280;5113;41.822;23.564;2023-02-02T06:48:43;-11035.94;;;3.68;65.53
10145;BME280;5113;41.822;23.564;2023-02-02T06:51:49;-11040.56;;;3.84;64.84
10145;BME280;5113;41.822;23.564;2023-02-02T06:54:55;-11051.78;;;4.25;62.70
10145;BME280;5113;41.822;23.564;2023-02-02T06:58:03;-11048.00;;;4.11;60.91
10145;BME280;5113;41.822;23.564;2023-02-02T07:01:11;-11050.69;;;4.21;60.51
10145;BME280;5113;41.822;23.564;2023-02-02T07:04:18;-11056.28;;;4.41;60.14
10145;BME280;5113;41.822;23.564;2023-02-02T07:07:26;-11056.84;;;4.43;60.70
10145;BME280;5113;41.822;23.564;2023-02-02T07:10:33;-11058.81;;;4.50;59.18
10145;BME280;5113;41.822;23.564;2023-02-02T07:14:00;-11059.25;;;4.52;59.61
10145;BME280;5113;41.822;23.564;2023-02-02T07:17:06;-11058.25;;;4.48;59.92
10145;BME280;5113;41.822;23.564;2023-02-02T07:20:13;-11063.88;;;4.69;60.06
10145;BME280;5113;41.822;23.564;2023-02-02T07:23:22;-11068.63;;;4.86;60.55
10145;BME280;5113;41.822;23.564;2023-02-02T07:26:28;-11069.63;;;4.89;59.67
10145;BME280;5113;41.822;23.564;2023-02-02T07:29:36;-11079.59;;;5.25;58.68
10145;BME280;5113;41.822;23.564;2023-02-02T07:32:45;-11084.63;;;5.44;57.94
10145;BME280;5113;41.822;23.564;2023-02-02T07:35:52;-11082.53;;;5.36;56.42
10145;BME280;5113;41.822;23.564;2023-02-02T07:38:58;-11090.25;;;5.64;54.82
10145;BME280;5113;41.822;23.564;2023-02-02T07:42:10;-11098.13;;;5.92;54.70
10145;BME280;5113;41.822;23.564;2023-02-02T07:45:17;-11103.75;;;6.13;53.82
10145;BME280;5113;41.822;23.564;2023-02-02T07:48:31;-11108.22;;;6.29;53.75
10145;BME280;5113;41.822;23.564;2023-02-02T07:51:38;-11090.81;;;5.66;52.91
10145;BME280;5113;41.822;23.564;2023-02-02T07:54:50;-11102.34;;;6.08;52.71
10145;BME280;5113;41.822;23.564;2023-02-02T07:58:08;-11116.66;;;6.59;52.14
10145;BME280;5113;41.822;23.564;2023-02-02T08:01:16;-11106.84;;;6.24;50.91
10145;BME280;5113;41.822;23.564;2023-02-02T08:04:24;-11109.22;;;6.33;50.98
10145;BME280;5113;41.822;23.564;2023-02-02T08:07:32;-11109.91;;;6.35;51.33
10145;BME280;5113;41.822;23.564;2023-02-02T08:10:39;-11113.28;;;6.47;51.80
10145;BME280;5113;41.822;23.564;2023-02-02T08:13:53;-11100.09;;;6.00;51.87
10145;BME280;5113;41.822;23.564;2023-02-02T08:17:01;-11108.09;;;6.28;51.84
10145;BME280;5113;41.822;23.564;2023-02-02T08:20:09;-11112.16;;;6.43;51.66
10145;BME280;5113;41.822;23.564;2023-02-02T08:23:16;-11114.56;;;6.52;51.37
10145;BME280;5113;41.822;23.564;2023-02-02T08:26:29;-11118.75;;;6.67;50.58
10145;BME280;5113;41.822;23.564;2023-02-02T08:29:37;-11125.94;;;6.93;50.38
10145;BME280;5113;41.822;23.564;2023-02-02T08:32:44;-11129.59;;;7.06;49.80
10145;BME280;5113;41.822;23.564;2023-02-02T08:35:50;-11121.44;;;6.77;50.55
10145;BME280;5113;41.822;23.564;2023-02-02T08:38:59;-11132.94;;;7.18;49.10
10145;BME280;5113;41.822;23.564;2023-02-02T08:42:06;-11140.41;;;7.45;49.37
10145;BME280;5113;41.822;23.564;2023-02-02T08:45:12;-11122.84;;;6.82;50.52
10145;BME280;5113;41.822;23.564;2023-02-02T08:48:40;-11130.41;;;7.09;49.49
10145;BME280;5113;41.822;23.564;2023-02-02T08:51:46;-11133.78;;;7.21;49.15
10145;BME280;5113;41.822;23.564;2023-02-02T08:54:52;-11137.44;;;7.35;49.75
10145;BME280;5113;41.822;23.564;2023-02-02T08:57:58;-11119.03;;;6.68;50.04
10145;BME280;5113;41.822;23.564;2023-02-02T09:01:05;-11130.97;;;7.11;49.84
10145;BME280;5113;41.822;23.564;2023-02-02T09:04:14;-11141.66;;;7.50;49.01
10145;BME280;5113;41.822;23.564;2023-02-02T09:07:20;-11125.66;;;6.92;49.28
10145;BME280;5113;41.822;23.564;2023-02-02T09:10:27;-11132.81;;;7.18;48.53
10145;BME280;5113;41.822;23.564;2023-02-02T09:13:36;-11141.53;;;7.49;48.48
10145;BME280;5113;41.822;23.564;2023-02-02T09:16:43;-11132.38;;;7.16;48.77
10145;BME280;5113;41.822;23.564;2023-02-02T09:19:50;-11143.78;;;7.57;48.71
10145;BME280;5113;41.822;23.564;2023-02-02T09:22:56;-11147.56;;;7.71;48.14
10145;BME280;5113;41.822;23.564;2023-02-02T09:26:09;-11146.00;;;7.66;48.61
10145;BME280;5113;41.822;23.564;2023-02-02T09:29:16;-11133.22;;;7.19;47.62
10145;BME280;5113;41.822;23.564;2023-02-02T09:32:22;-11157.97;;;8.09;46.55
10145;BME280;5113;41.822;23.564;2023-02-02T09:35:30;-11164.72;;;8.33;46.44
10145;BME280;5113;41.822;23.564;2023-02-02T09:38:36;-11145.88;;;7.65;46.61
10145;BME280;5113;41.822;23.564;2023-02-02T09:42:08;-11147.28;;;7.70;45.93
10145;BME280;5113;41.822;23.564;2023-02-02T09:45:25;-11157.13;;;8.06;47.34
10145;BME280;5113;41.822;23.564;2023-02-02T09:48:39;-11156.56;;;8.04;47.07
10145;BME280;5113;41.822;23.564;2023-02-02T09:51:53;-11158.25;;;8.10;45.54
10145;BME280;5113;41.822;23.564;2023-02-02T09:55:03;-11179.19;;;8.85;44.88
10145;BME280;5113;41.822;23.564;2023-02-02T09:58:17;-11177.91;;;8.81;44.83
10145;BME280;5113;41.822;23.564;2023-02-02T10:01:26;-11181.84;;;8.95;44.03
10145;BME280;5113;41.822;23.564;2023-02-02T10:04:37;-11180.72;;;8.91;43.85
10145;BME280;5113;41.822;23.564;2023-02-02T10:07:49;-11193.94;;;9.39;43.97
10145;BME280;5113;41.822;23.564;2023-02-02T10:10:56;-11174.13;;;8.67;44.15
10145;BME280;5113;41.822;23.564;2023-02-02T10:14:05;-11193.25;;;9.36;43.66
10145;BME280;5113;41.822;23.564;2023-02-02T10:17:26;-11168.66;;;8.47;43.53
10145;BME280;5113;41.822;23.564;2023-02-02T10:20:39;-11186.91;;;9.13;44.13
10145;BME280;5113;41.822;23.564;2023-02-02T10:23:49;-11179.59;;;8.87;44.84
10145;BME280;5113;41.822;23.564;2023-02-02T10:27:01;-11185.78;;;9.09;44.77
10145;BME280;5113;41.822;23.564;2023-02-02T10:30:17;-11192.53;;;9.34;44.62
10145;BME280;5113;41.822;23.564;2023-02-02T10:33:34;-11200.97;;;9.64;44.58
10145;BME280;5113;41.822;23.564;2023-02-02T10:36:49;-11185.78;;;9.09;45.57
10145;BME280;5113;41.822;23.564;2023-02-02T10:40:15;-11197.47;;;9.51;45.47
10145;BME280;5113;41.822;23.564;2023-02-02T10:47:12;-11159.66;;;8.15;46.50
10145;BME280;5113;41.822;23.564;2023-02-02T10:50:21;-11146.72;;;7.68;44.94
10145;BME280;5113;41.822;23.564;2023-02-02T10:53:29;-11155.72;;;8.01;44.48
10145;BME280;5113;41.822;23.564;2023-02-02T10:56:42;-11167.66;;;8.44;43.79
10145;BME280;5113;41.822;23.564;2023-02-02T10:59:57;-11188.03;;;9.17;42.93
10145;BME280;5113;41.822;23.564;2023-02-02T11:03:09;-11169.22;;;8.49;42.68
10145;BME280;5113;41.822;23.564;2023-02-02T11:06:15;-11188.59;;;9.19;42.93
10145;BME280;5113;41.822;23.564;2023-02-02T11:09:41;-11155.16;;;7.99;42.22
10145;BME280;5113;41.822;23.564;2023-02-02T11:12:49;-11163.03;;;8.27;42.35
10145;BME280;5113;41.822;23.564;2023-02-02T11:16:27;-11171.31;;;8.57;41.49
10145;BME280;5113;41.822;23.564;2023-02-02T11:19:47;-11167.53;;;8.43;41.52
10145;BME280;5113;41.822;23.564;2023-02-02T11:23:01;-11170.19;;;8.53;41.55
10145;BME280;5113;41.822;23.564;2023-02-02T11:26:08;-11167.81;;;8.44;42.65
10145;BME280;5113;41.822;23.564;2023-02-02T11:29:19;-11155.84;;;8.01;43.25
10145;BME280;5113;41.822;23.564;2023-02-02T11:32:31;-11167.81;;;8.44;44.10
10145;BME280;5113;41.822;23.564;2023-02-02T11:35:52;-11165.13;;;8.35;44.15
10145;BME280;5113;41.822;23.564;2023-02-02T11:39:13;-11168.09;;;8.45;43.62
10145;BME280;5113;41.822;23.564;2023-02-02T11:42:22;-11167.25;;;8.42;44.15
10145;BME280;5113;41.822;23.564;2023-02-02T11:45:33;-11172.44;;;8.61;44.38
10145;BME280;5113;41.822;23.564;2023-02-02T11:48:47;-11172.88;;;8.63;43.81
10145;BME280;5113;41.822;23.564;2023-02-02T11:51:57;-11174.81;;;8.70;44.44
10145;BME280;5113;41.822;23.564;2023-02-02T11:55:08;-11172.88;;;8.63;44.38
10145;BME280;5113;41.822;23.564;2023-02-02T11:58:22;-11164.72;;;8.33;44.34
10145;BME280;5113;41.822;23.564;2023-02-02T12:01:35;-11172.59;;;8.62;44.47
10145;BME280;5113;41.822;23.564;2023-02-02T12:04:43;-11171.75;;;8.58;44.20
10145;BME280;5113;41.822;23.564;2023-02-02T12:07:49;-11171.47;;;8.57;44.57
10145;BME280;5113;41.822;23.564;2023-02-02T12:10:59;-11195.06;;;9.43;45.08
10145;BME280;5113;41.822;23.564;2023-02-02T12:14:26;-11196.34;;;9.47;41.40
10145;BME280;5113;41.822;23.564;2023-02-02T12:17:38;-11203.50;;;9.73;42.00
10145;BME280;5113;41.822;23.564;2023-02-02T12:20:50;-11201.25;;;9.65;41.89
10145;BME280;5113;41.822;23.564;2023-02-02T12:24:13;-11198.16;;;9.54;41.19
10145;BME280;5113;41.822;23.564;2023-02-02T12:27:26;-11192.53;;;9.34;40.84
10145;BME280;5113;41.822;23.564;2023-02-02T12:30:43;-11186.63;;;9.12;40.65
10145;BME280;5113;41.822;23.564;2023-02-02T12:34:06;-11193.94;;;9.39;38.60
10145;BME280;5113;41.822;23.564;2023-02-02T12:37:21;-11193.09;;;9.36;39.69
10145;BME280;5113;41.822;23.564;2023-02-02T12:40:50;-11194.78;;;9.42;41.06
10145;BME280;5113;41.822;23.564;2023-02-02T12:44:10;-11183.97;;;9.03;41.26
10145;BME280;5113;41.822;23.564;2023-02-02T12:47:22;-11187.34;;;9.15;40.73
10145;BME280;5113;41.822;23.564;2023-02-02T12:50:38;-11185.66;;;9.09;43.00
10145;BME280;5113;41.822;23.564;2023-02-02T12:54:11;-11176.50;;;8.76;43.62
10145;BME280;5113;41.822;23.564;2023-02-02T12:57:50;-11173.72;;;8.66;42.47
10145;BME280;5113;41.822;23.564;2023-02-02T13:04:45;-11192.53;;;9.34;40.34
10145;BME280;5113;41.822;23.564;2023-02-02T13:07:57;-11213.22;;;10.08;39.10
10145;BME280;5113;41.822;23.564;2023-02-02T13:11:08;-11206.59;;;9.84;36.20
10145;BME280;5113;41.822;23.564;2023-02-02T13:14:36;-11205.47;;;9.80;36.94
10145;BME280;5113;41.822;23.564;2023-02-02T13:17:47;-11182.28;;;8.97;37.99
10145;BME280;5113;41.822;23.564;2023-02-02T13:20:58;-11183.81;;;9.02;38.74
10145;BME280;5113;41.822;23.564;2023-02-02T13:24:13;-11191.69;;;9.31;37.70
10145;BME280;5113;41.822;23.564;2023-02-02T13:27:21;-11194.78;;;9.42;37.94
10145;BME280;5113;41.822;23.564;2023-02-02T13:30:30;-11191.97;;;9.32;38.01
10145;BME280;5113;41.822;23.564;2023-02-02T13:33:38;-11188.47;;;9.19;37.51
10145;BME280;5113;41.822;23.564;2023-02-02T13:36:49;-11201.13;;;9.65;37.61
10145;BME280;5113;41.822;23.564;2023-02-02T13:40:02;-11204.91;;;9.78;36.99
10145;BME280;5113;41.822;23.564;2023-02-02T13:43:22;-11200.13;;;9.61;37.05
10145;BME280;5113;41.822;23.564;2023-02-02T13:46:35;-11187.91;;;9.17;36.75
10145;BME280;5113;41.822;23.564;2023-02-02T13:49:48;-11184.81;;;9.06;37.26
10145;BME280;5113;41.822;23.564;2023-02-02T13:53:27;-11183.69;;;9.02;35.42
10145;BME280;5113;41.822;23.564;2023-02-02T13:56:46;-11183.53;;;9.01;36.80
10145;BME280;5113;41.822;23.564;2023-02-02T14:03:30;-11181.00;;;8.92;36.98
10145;BME280;5113;41.822;23.564;2023-02-02T14:06:53;-11179.31;;;8.86;36.74
10145;BME280;5113;41.822;23.564;2023-02-02T14:10:01;-11159.66;;;8.15;37.65
10145;BME280;5113;41.822;23.564;2023-02-02T14:13:16;-11176.22;;;8.75;37.41
10145;BME280;5113;41.822;23.564;2023-02-02T14:16:51;-11166.81;;;8.41;37.40
10145;BME280;5113;41.822;23.564;2023-02-02T14:20:00;-11161.91;;;8.23;37.09
10145;BME280;5113;41.822;23.564;2023-02-02T14:27:00;-11161.06;;;8.20;38.21
10145;BME280;5113;41.822;23.564;2023-02-02T14:30:21;-11157.13;;;8.06;39.27
10145;BME280;5113;41.822;23.564;2023-02-02T14:33:39;-11150.38;;;7.81;37.75
10145;BME280;5113;41.822;23.564;2023-02-02T14:36:57;-11145.31;;;7.63;37.36
10145;BME280;5113;41.822;23.564;2023-02-02T14:40:25;-11146.84;;;7.69;38.01
10145;BME280;5113;41.822;23.564;2023-02-02T14:43:41;-11147.28;;;7.70;38.11
10145;BME280;5113;41.822;23.564;2023-02-02T14:46:51;-11147.56;;;7.71;38.81
10145;BME280;5113;41.822;23.564;2023-02-02T14:49:58;-11145.19;;;7.62;37.92
10145;BME280;5113;41.822;23.564;2023-02-02T14:53:06;-11145.88;;;7.65;38.57
10145;BME280;5113;41.822;23.564;2023-02-02T14:56:15;-11142.38;;;7.52;38.71
10145;BME280;5113;41.822;23.564;2023-02-02T14:59:27;-11136.59;;;7.32;40.40
10145;BME280;5113;41.822;23.564;2023-02-02T15:02:36;-11139.97;;;7.44;40.06
10145;BME280;5113;41.822;23.564;2023-02-02T15:05:43;-11140.41;;;7.45;41.20
10145;BME280;5113;41.822;23.564;2023-02-02T15:12:32;-11127.06;;;6.97;41.10
10145;BME280;5113;41.822;23.564;2023-02-02T15:15:40;-11128.19;;;7.01;42.17
10145;BME280;5113;41.822;23.564;2023-02-02T15:18:57;-11123.97;;;6.86;43.23
10145;BME280;5113;41.822;23.564;2023-02-02T15:22:22;-11121.44;;;6.77;43.38
10145;BME280;5113;41.822;23.564;2023-02-02T15:25:36;-11117.09;;;6.61;46.32
10145;BME280;5113;41.822;23.564;2023-02-02T15:28:50;-11103.19;;;6.11;49.83
10145;BME280;5113;41.822;23.564;2023-02-02T15:31:58;-11101.22;;;6.04;51.90
10145;BME280;5113;41.822;23.564;2023-02-02T15:35:11;-11099.25;;;5.96;52.74
10145;BME280;5113;41.822;23.564;2023-02-02T15:38:24;-11094.75;;;5.80;54.02
10145;BME280;5113;41.822;23.564;2023-02-02T15:41:41;-11091.94;;;5.70;55.28
10145;BME280;5113;41.822;23.564;2023-02-02T15:44:48;-11092.50;;;5.72;56.67
10145;BME280;5113;41.822;23.564;2023-02-02T15:47:55;-11086.03;;;5.49;59.85
10145;BME280;5113;41.822;23.564;2023-02-02T15:51:14;-11075.94;;;5.12;65.74
10145;BME280;5113;41.822;23.564;2023-02-02T15:54:23;-11072.56;;;5.00;68.97
10145;BME280;5113;41.822;23.564;2023-02-02T15:57:31;-11074.41;;;5.07;70.29
10145;BME280;5113;41.822;23.564;2023-02-02T16:00:38;-11073.84;;;5.05;71.92
10145;BME280;5113;41.822;23.564;2023-02-02T16:03:48;-11066.66;;;4.79;73.56
10145;BME280;5113;41.822;23.564;2023-02-02T16:06:58;-11073.28;;;5.03;75.71
10145;BME280;5113;41.822;23.564;2023-02-02T16:10:07;-11065.00;;;4.73;81.86
10145;BME280;5113;41.822;23.564;2023-02-02T16:13:23;-11055.72;;;4.39;89.89
10145;BME280;5113;41.822;23.564;2023-02-02T16:16:31;-11030.19;;;3.47;100.00
10145;BME280;5113;41.822;23.564;2023-02-02T16:19:40;-11028.94;;;3.42;100.00
10145;BME280;5113;41.822;23.564;2023-02-02T16:22:49;-11026.28;;;3.33;100.00
10145;BME280;5113;41.822;23.564;2023-02-02T16:25:58;-11013.09;;;2.85;100.00
10145;BME280;5113;41.822;23.564;2023-02-02T16:29:05;-11020.38;;;3.11;100.00
10145;BME280;5113;41.822;23.564;2023-02-02T16:32:25;-11009.16;;;2.71;100.00
10145;BME280;5113;41.822;23.564;2023-02-02T16:35:33;-11021.06;;;3.14;100.00
10145;BME280;5113;41.822;23.564;2023-02-02T16:38:41;-11012.25;;;2.82;100.00
10145;BME280;5113;41.822;23.564;2023-02-02T16:41:47;-11020.94;;;3.13;100.00
10145;BME280;5113;41.822;23.564;2023-02-02T16:44:55;-11023.03;;;3.21;100.00
10145;BME280;5113;41.822;23.564;2023-02-02T16:48:26;-11027.94;;;3.39;100.00
10145;BME280;5113;41.822;23.564;2023-02-02T16:51:33;-11019.25;;;3.07;100.00
10145;BME280;5113;41.822;23.564;2023-02-02T16:54:49;-11014.63;;;2.90;100.00
10145;BME280;5113;41.822;23.564;2023-02-02T16:57:57;-11021.78;;;3.16;100.00
10145;BME280;5113;41.822;23.564;2023-02-02T17:01:06;-11019.53;;;3.08;100.00
10145;BME280;5113;41.822;23.564;2023-02-02T17:04:22;-11023.19;;;3.21;100.00
10145;BME280;5113;41.822;23.564;2023-02-02T17:07:30;-11025.16;;;3.28;100.00
10145;BME280;5113;41.822;23.564;2023-02-02T17:10:41;-11018.97;;;3.06;100.00
10145;BME280;5113;41.822;23.564;2023-02-02T17:13:47;-11023.19;;;3.21;100.00